This is the latest recevied weather packets stored in our database for station/object KC4GS-13. If no packets are shown the sender has not sent any weather packets the latest 10 day(s).
| Time | Temp. | Humidity | Pressure | Rain* | Wind** | Luminosity | Snow |
|---|---|---|---|---|---|---|---|
| 1778157535 | 20° C | 99% | 1011.1 hPa | 1.78 mm | - | 22 W/m² | - |
| 1778157232 | 19.44° C | 99% | 1010.8 hPa | 1.78 mm | - | 26 W/m² | - |
| 1778156928 | 20° C | 99% | 1011.6 hPa | 0 mm | - | 8 W/m² | - |
| 1778156624 | 20° C | 99% | 1011.2 hPa | 0 mm | - | 26 W/m² | - |
| 1778156320 | 19.44° C | 99% | 1011 hPa | 0 mm | - | 29 W/m² | - |
| 1778156015 | 19.44° C | 99% | 1010.8 hPa | 0 mm | - | 26 W/m² | - |
| 1778155712 | 19.44° C | 99% | 1010.7 hPa | 0 mm | - | 33 W/m² | - |
| 1778155409 | 19.44° C | 99% | 1010.9 hPa | 0 mm | - | 21 W/m² | - |
| 1778155105 | 19.44° C | 99% | 1010.6 hPa | 0 mm | - | 13 W/m² | - |
| 1778154800 | 19.44° C | 99% | 1010.9 hPa | 0 mm | - | 6 W/m² | - |
| 1778154497 | 19.44° C | 99% | 1010.7 hPa | 0 mm | - | 11 W/m² | - |
| 1778154194 | 19.44° C | 99% | 1010.2 hPa | 0 mm | - | 16 W/m² | - |
| 1778153892 | 19.44° C | 99% | 1009.8 hPa | 0 mm | - | 27 W/m² | - |
| 1778153588 | 19.44° C | 99% | 1010.2 hPa | 0 mm | - | 23 W/m² | - |
| 1778153286 | 19.44° C | 99% | 1010.2 hPa | 0 mm | - | 13 W/m² | - |
| 1778152983 | 18.89° C | 99% | 1010.2 hPa | 0 mm | - | 10 W/m² | - |
| 1778152681 | 18.89° C | 99% | 1010.2 hPa | 0 mm | - | 7 W/m² | - |
| 1778152377 | 18.89° C | 99% | 1010.4 hPa | 0 mm | - | 5 W/m² | - |
| 1778152073 | 18.89° C | 99% | 1010.3 hPa | 0 mm | - | 2 W/m² | - |
| 1778151770 | 18.89° C | 99% | 1010.1 hPa | 0 mm | - | 1 W/m² | - |
| 1778151467 | 18.89° C | 99% | 1010 hPa | 0 mm | - | 0 W/m² | - |
| 1778151162 | 18.89° C | 99% | 1010 hPa | 1.27 mm | - | 0 W/m² | - |
| 1778150860 | 19.44° C | 99% | 1009.8 hPa | 3.05 mm | - | 0 W/m² | - |
| 1778150557 | 18.89° C | 99% | 1010.6 hPa | 3.05 mm | - | 0 W/m² | - |
| 1778150252 | 19.44° C | 99% | 1011.2 hPa | 3.05 mm | - | 0 W/m² | - |
* Rain latest hour (hover to see other rain measurements)
** Current wind speed in m/s (hover to see current wind gust speed)